createdAt,value
2023-09-20T00:01:34.842Z,14.81
2023-09-20T00:04:07.133Z,14.60
2023-09-20T00:06:33.954Z,14.44
2023-09-20T00:09:01.334Z,14.70
2023-09-20T00:11:28.111Z,14.33
2023-09-20T00:13:55.058Z,14.28
2023-09-20T00:16:23.393Z,14.25
2023-09-20T00:18:50.455Z,14.48
2023-09-20T00:21:16.968Z,14.57
2023-09-20T00:23:43.888Z,14.42
2023-09-20T00:26:11.230Z,14.43
2023-09-20T00:28:39.496Z,14.54
2023-09-20T00:31:07.055Z,14.20
2023-09-20T00:33:33.611Z,14.42
2023-09-20T00:36:00.336Z,14.37
2023-09-20T00:38:26.902Z,14.38
2023-09-20T00:40:53.669Z,14.30
2023-09-20T00:43:25.327Z,14.44
2023-09-20T00:45:53.003Z,14.11
2023-09-20T00:48:20.824Z,14.30
2023-09-20T00:50:49.283Z,14.57
2023-09-20T00:53:16.469Z,14.27
2023-09-20T00:55:44.539Z,14.48
2023-09-20T00:58:17.850Z,14.12
2023-09-20T01:00:44.834Z,13.98
2023-09-20T01:03:18.589Z,14.16
2023-09-20T01:05:49.073Z,14.19
2023-09-20T01:08:19.091Z,14.13
2023-09-20T01:10:47.818Z,14.07
2023-09-20T01:13:16.559Z,14.00
2023-09-20T01:15:43.831Z,13.96
2023-09-20T01:18:10.451Z,14.07
2023-09-20T01:20:40.416Z,13.98
2023-09-20T01:23:07.057Z,13.58
2023-09-20T01:25:37.032Z,13.84
2023-09-20T01:28:07.263Z,13.94
2023-09-20T01:30:37.903Z,13.63
2023-09-20T01:33:08.667Z,13.82
2023-09-20T01:35:37.984Z,13.48
2023-09-20T01:38:07.591Z,14.06
2023-09-20T01:40:36.041Z,13.73
2023-09-20T01:43:05.162Z,13.84
2023-09-20T01:45:33.419Z,13.70
2023-09-20T01:48:06.929Z,13.58
2023-09-20T01:50:34.300Z,13.68
2023-09-20T01:53:06.137Z,13.69
2023-09-20T01:55:32.872Z,13.61
2023-09-20T01:58:04.247Z,13.19
2023-09-20T02:00:34.343Z,13.29
2023-09-20T02:03:07.522Z,13.29
2023-09-20T02:05:37.727Z,13.17
2023-09-20T02:08:07.113Z,13.67
2023-09-20T02:10:34.431Z,13.47
2023-09-20T02:13:01.815Z,13.51
2023-09-20T02:15:30.893Z,13.55
2023-09-20T02:17:57.516Z,13.16
2023-09-20T02:20:26.787Z,12.77
2023-09-20T02:22:56.582Z,13.06
2023-09-20T02:25:25.364Z,13.04
2023-09-20T02:27:58.170Z,13.10
2023-09-20T02:30:29.733Z,12.63
2023-09-20T02:32:59.001Z,13.12
2023-09-20T02:35:29.056Z,12.71
2023-09-20T02:37:57.278Z,12.95
2023-09-20T02:40:24.773Z,12.92
2023-09-20T02:42:55.138Z,13.20
2023-09-20T02:45:24.493Z,13.20
2023-09-20T02:47:53.185Z,13.19
2023-09-20T02:50:24.369Z,13.20
2023-09-20T02:52:53.540Z,13.24
2023-09-20T02:55:22.448Z,13.26
2023-09-20T02:57:55.592Z,13.70
2023-09-20T03:00:29.626Z,13.31
2023-09-20T03:03:04.348Z,13.72
2023-09-20T03:05:35.036Z,13.54
2023-09-20T03:08:03.189Z,13.26
2023-09-20T03:10:30.105Z,13.19
2023-09-20T03:12:58.970Z,13.41
2023-09-20T03:15:28.307Z,13.03
2023-09-20T03:18:03.703Z,13.00
2023-09-20T03:20:34.754Z,13.18
2023-09-20T03:23:04.654Z,13.63
2023-09-20T03:25:37.537Z,12.85
2023-09-20T03:28:08.898Z,13.12
2023-09-20T03:30:39.711Z,13.27
2023-09-20T03:33:08.384Z,13.27
2023-09-20T03:35:35.661Z,13.38
2023-09-20T03:38:03.785Z,13.31
2023-09-20T03:40:30.309Z,13.34
2023-09-20T03:42:56.919Z,13.42
2023-09-20T03:45:25.300Z,13.40
2023-09-20T03:47:55.110Z,13.50
2023-09-20T03:50:22.723Z,13.49
2023-09-20T03:52:50.713Z,13.37
2023-09-20T03:55:18.465Z,13.14
2023-09-20T03:57:45.138Z,13.04
2023-09-20T04:00:13.241Z,13.34
2023-09-20T04:02:41.336Z,13.37
2023-09-20T04:05:12.259Z,13.25
2023-09-20T04:07:40.569Z,13.15
2023-09-20T04:10:09.090Z,13.17
2023-09-20T04:12:37.694Z,13.00
2023-09-20T04:15:06.028Z,12.90
2023-09-20T04:17:35.498Z,13.13
2023-09-20T04:20:09.175Z,13.21
2023-09-20T04:22:38.399Z,13.01
2023-09-20T04:25:06.941Z,12.93
2023-09-20T04:27:33.510Z,12.84
2023-09-20T04:30:01.021Z,12.73
2023-09-20T04:32:27.645Z,12.82
2023-09-20T04:34:55.044Z,13.00
2023-09-20T04:37:24.074Z,12.89
2023-09-20T04:39:50.946Z,12.71
2023-09-20T04:42:17.655Z,13.03
2023-09-20T04:44:44.279Z,13.05
2023-09-20T04:47:12.089Z,13.04
2023-09-20T04:49:39.263Z,13.12
2023-09-20T04:52:06.898Z,13.02
2023-09-20T04:54:35.008Z,12.85
2023-09-20T04:57:02.472Z,12.48
2023-09-20T04:59:29.687Z,12.51
2023-09-20T05:01:56.227Z,12.57
2023-09-20T05:04:22.892Z,12.71
2023-09-20T05:06:50.972Z,12.75
2023-09-20T05:09:17.469Z,12.77
2023-09-20T05:11:44.036Z,12.91
2023-09-20T05:14:10.604Z,12.95
2023-09-20T05:16:37.109Z,12.91
2023-09-20T05:19:04.348Z,12.71
2023-09-20T05:21:31.036Z,12.98
2023-09-20T05:23:58.509Z,13.23
2023-09-20T05:26:25.342Z,13.22
2023-09-20T05:28:51.867Z,13.02
2023-09-20T05:31:18.573Z,12.68
2023-09-20T05:33:45.098Z,12.90
2023-09-20T05:36:11.651Z,12.70
2023-09-20T05:38:38.247Z,12.93
2023-09-20T05:41:05.055Z,12.61
2023-09-20T05:43:31.657Z,12.65
2023-09-20T05:46:00.908Z,13.05
2023-09-20T05:48:27.658Z,12.78
2023-09-20T05:50:55.273Z,13.05
2023-09-20T05:53:22.391Z,12.92
2023-09-20T05:55:50.544Z,12.93
2023-09-20T05:58:17.075Z,12.83
2023-09-20T06:00:43.898Z,13.09
2023-09-20T06:03:14.191Z,12.79
2023-09-20T06:05:41.019Z,12.76
2023-09-20T06:08:07.758Z,12.86
2023-09-20T06:10:34.749Z,12.78
2023-09-20T06:13:01.572Z,12.94
2023-09-20T06:15:28.113Z,13.03
2023-09-20T06:17:54.670Z,12.98
2023-09-20T06:20:21.424Z,14.13
2023-09-20T06:22:49.879Z,14.83
2023-09-20T06:25:20.349Z,15.38
2023-09-20T06:27:47.110Z,16.13
2023-09-20T06:30:13.924Z,16.30
2023-09-20T06:32:43.459Z,15.72
2023-09-20T06:35:11.806Z,15.51
2023-09-20T06:37:40.136Z,14.94
2023-09-20T06:40:24.781Z,14.99
2023-09-20T06:42:51.754Z,14.94
2023-09-20T06:45:23.547Z,15.46
2023-09-20T06:47:50.232Z,15.19
2023-09-20T06:50:17.046Z,15.28
2023-09-20T06:52:44.319Z,15.17
2023-09-20T06:55:20.138Z,15.31
2023-09-20T06:57:48.912Z,15.48
2023-09-20T07:00:17.843Z,15.59
2023-09-20T07:02:44.538Z,15.40
2023-09-20T07:05:11.218Z,15.66
2023-09-20T07:07:37.805Z,15.52
2023-09-20T07:10:06.251Z,15.76
2023-09-20T07:12:35.653Z,15.71
2023-09-20T07:15:02.236Z,15.96
2023-09-20T07:17:29.078Z,16.31
2023-09-20T07:19:58.114Z,16.15
2023-09-20T07:22:24.854Z,16.12
2023-09-20T07:24:55.736Z,16.01
2023-09-20T07:27:22.257Z,15.93
2023-09-20T07:29:50.264Z,16.19
2023-09-20T07:32:16.871Z,16.46
2023-09-20T07:34:48.193Z,16.62
2023-09-20T07:37:17.893Z,17.04
2023-09-20T07:39:46.981Z,17.00
2023-09-20T07:42:14.429Z,16.82
2023-09-20T07:44:41.920Z,17.28
2023-09-20T07:47:08.460Z,17.74
2023-09-20T07:49:36.086Z,18.27
2023-09-20T07:52:05.511Z,19.41
2023-09-20T07:54:32.081Z,19.38
2023-09-20T07:56:58.779Z,19.57
2023-09-20T07:59:27.848Z,18.85
2023-09-20T08:01:54.967Z,18.99
2023-09-20T08:04:23.006Z,19.17
2023-09-20T08:06:49.746Z,19.37
2023-09-20T08:09:16.279Z,19.78
2023-09-20T08:11:42.868Z,19.25
2023-09-20T08:14:09.899Z,19.27
2023-09-20T08:19:22.470Z,20.96
2023-09-20T08:21:49.891Z,20.41
2023-09-20T08:24:36.616Z,20.30
2023-09-20T08:27:23.221Z,20.26
2023-09-20T08:30:09.779Z,21.37
2023-09-20T08:32:56.300Z,20.66
2023-09-20T08:35:42.910Z,20.22
2023-09-20T08:38:29.449Z,20.01
2023-09-20T08:41:16.248Z,20.17
2023-09-20T08:44:02.863Z,20.75
2023-09-20T08:46:56.211Z,20.39
2023-09-20T08:49:51.683Z,22.12
2023-09-20T08:52:41.441Z,20.80
2023-09-20T08:55:31.187Z,21.02
2023-09-20T08:58:18.351Z,20.04
2023-09-20T09:00:49.426Z,20.79
2023-09-20T09:03:17.188Z,20.87
2023-09-20T09:05:44.160Z,21.24
2023-09-20T09:08:11.727Z,22.51
2023-09-20T09:10:38.339Z,22.88
2023-09-20T09:13:05.213Z,22.14
2023-09-20T09:15:31.775Z,21.57
2023-09-20T09:17:58.563Z,22.46
2023-09-20T09:20:27.062Z,22.71
2023-09-20T09:22:54.943Z,22.24
2023-09-20T09:25:31.888Z,22.68
2023-09-20T09:27:59.004Z,21.73
2023-09-20T09:30:28.037Z,22.15
2023-09-20T09:32:54.854Z,22.36
2023-09-20T09:35:35.179Z,22.79
2023-09-20T09:38:07.665Z,22.99
2023-09-20T09:40:54.576Z,22.45
2023-09-20T09:43:21.312Z,23.15
2023-09-20T09:45:51.111Z,22.86
2023-09-20T09:48:18.147Z,23.18
2023-09-20T09:50:47.731Z,23.74
2023-09-20T09:53:16.596Z,23.21
2023-09-20T09:55:44.006Z,23.46
2023-09-20T09:58:10.705Z,23.54
2023-09-20T10:00:42.376Z,23.49
2023-09-20T10:03:26.327Z,22.71
2023-09-20T10:06:06.966Z,22.87
2023-09-20T10:08:41.050Z,23.30
2023-09-20T10:11:10.226Z,23.70
2023-09-20T10:13:41.162Z,23.57
2023-09-20T10:16:13.120Z,23.69
2023-09-20T10:19:01.539Z,24.54
2023-09-20T10:21:32.802Z,24.04
2023-09-20T10:24:08.892Z,23.99
2023-09-20T10:26:41.360Z,23.75
2023-09-20T10:29:29.975Z,23.88
2023-09-20T10:32:15.127Z,24.10
2023-09-20T10:35:01.807Z,23.05
2023-09-20T10:37:28.529Z,22.49
2023-09-20T10:39:59.179Z,22.77
2023-09-20T10:42:27.752Z,22.86
2023-09-20T10:45:01.239Z,22.88
2023-09-20T10:47:27.886Z,22.84
2023-09-20T10:49:56.859Z,23.11
2023-09-20T10:52:39.485Z,22.47
2023-09-20T10:55:29.604Z,22.83
2023-09-20T10:57:58.073Z,22.57
2023-09-20T11:00:31.692Z,22.46
2023-09-20T11:02:58.905Z,22.62
2023-09-20T11:05:29.389Z,22.57
2023-09-20T11:07:56.875Z,22.86
2023-09-20T11:10:24.259Z,22.73
2023-09-20T11:12:56.155Z,23.02
2023-09-20T11:15:25.009Z,23.27
2023-09-20T11:17:52.506Z,23.63
2023-09-20T11:20:19.835Z,23.75
2023-09-20T11:22:46.739Z,23.38
2023-09-20T11:25:13.375Z,23.29
2023-09-20T11:27:40.454Z,23.35
2023-09-20T11:30:10.100Z,23.48
2023-09-20T11:32:40.564Z,23.60
2023-09-20T11:35:08.585Z,23.72
2023-09-20T11:37:36.505Z,23.16
2023-09-20T11:40:05.860Z,24.39
2023-09-20T11:42:35.569Z,24.20
2023-09-20T11:47:43.842Z,25.31
2023-09-20T11:50:15.061Z,25.09
2023-09-20T11:52:50.770Z,25.22
2023-09-20T11:55:20.696Z,24.45
2023-09-20T11:57:48.935Z,24.78
2023-09-20T12:00:20.409Z,25.00
2023-09-20T12:02:48.921Z,24.72
2023-09-20T12:05:20.395Z,24.56
2023-09-20T12:08:03.767Z,24.20
2023-09-20T12:10:31.900Z,23.86
2023-09-20T12:12:59.588Z,24.18
2023-09-20T12:15:26.693Z,23.99
2023-09-20T12:17:57.249Z,24.73
2023-09-20T12:20:26.727Z,25.60
2023-09-20T12:22:54.745Z,25.95
2023-09-20T12:25:21.825Z,25.20
2023-09-20T12:27:48.421Z,25.30
2023-09-20T12:30:15.007Z,25.39
2023-09-20T12:32:42.747Z,25.29
2023-09-20T12:35:11.214Z,25.15
2023-09-20T12:37:38.661Z,25.74
2023-09-20T12:40:10.113Z,25.85
2023-09-20T12:42:39.105Z,25.89
2023-09-20T12:45:08.895Z,25.40
2023-09-20T12:47:37.367Z,25.30
2023-09-20T12:50:04.987Z,24.90
2023-09-20T12:52:32.808Z,25.73
2023-09-20T12:55:00.103Z,25.38
2023-09-20T12:57:26.774Z,25.52
2023-09-20T12:59:54.190Z,25.78
2023-09-20T13:02:20.805Z,24.85
2023-09-20T13:04:47.582Z,25.24
2023-09-20T13:07:14.479Z,26.00
2023-09-20T13:09:41.205Z,25.51
2023-09-20T13:12:09.195Z,25.74
2023-09-20T13:14:36.368Z,25.28
2023-09-20T13:17:03.152Z,25.27
2023-09-20T13:19:29.760Z,26.31
2023-09-20T13:22:00.334Z,26.52
2023-09-20T13:24:27.111Z,25.89
2023-09-20T13:26:53.638Z,25.97
2023-09-20T13:29:20.228Z,25.89
2023-09-20T13:31:47.306Z,25.39
2023-09-20T13:34:16.678Z,25.74
2023-09-20T13:36:48.255Z,26.35
2023-09-20T13:39:17.576Z,25.72
2023-09-20T13:41:45.507Z,25.74
2023-09-20T13:44:12.065Z,25.48
2023-09-20T13:46:39.690Z,25.29
2023-09-20T13:49:07.818Z,25.42
2023-09-20T13:51:34.524Z,25.52
2023-09-20T13:54:01.067Z,24.66
2023-09-20T13:56:28.769Z,24.67
2023-09-20T13:58:55.555Z,24.59
2023-09-20T14:01:22.869Z,24.22
2023-09-20T14:03:49.655Z,24.16
2023-09-20T14:06:18.333Z,24.65
2023-09-20T14:08:45.770Z,24.34
2023-09-20T14:11:14.263Z,24.34
2023-09-20T14:13:41.941Z,24.64
2023-09-20T14:16:11.978Z,24.68
2023-09-20T14:18:38.607Z,24.38
2023-09-20T14:21:06.681Z,23.89
2023-09-20T14:23:33.886Z,23.99
2023-09-20T14:26:01.410Z,24.19
2023-09-20T14:28:28.022Z,23.77
2023-09-20T14:30:54.898Z,23.87
2023-09-20T14:33:22.678Z,23.84
2023-09-20T14:35:50.672Z,23.50
2023-09-20T14:38:17.509Z,23.26
2023-09-20T14:40:44.475Z,23.03
2023-09-20T14:43:12.074Z,23.12
2023-09-20T14:45:38.756Z,22.99
2023-09-20T14:48:07.642Z,23.24
2023-09-20T14:50:35.256Z,23.17
2023-09-20T14:53:03.270Z,23.29
2023-09-20T14:55:31.316Z,23.37
2023-09-20T14:57:59.345Z,23.38
2023-09-20T15:00:27.184Z,23.25
2023-09-20T15:02:57.372Z,23.23
2023-09-20T15:05:25.904Z,23.41
2023-09-20T15:07:54.858Z,23.30
2023-09-20T15:10:25.631Z,23.13
2023-09-20T15:12:58.753Z,23.21
2023-09-20T15:15:28.673Z,23.14
2023-09-20T15:17:55.399Z,22.97
2023-09-20T15:20:22.031Z,22.91
2023-09-20T15:22:50.392Z,22.82
2023-09-20T15:25:17.233Z,22.85
2023-09-20T15:27:45.701Z,22.92
2023-09-20T15:30:14.910Z,22.90
2023-09-20T15:32:43.542Z,22.96
2023-09-20T15:35:10.798Z,22.74
2023-09-20T15:37:46.034Z,22.47
2023-09-20T15:40:16.459Z,22.33
2023-09-20T15:42:45.952Z,22.42
2023-09-20T15:45:15.131Z,22.10
2023-09-20T15:47:42.275Z,22.17
2023-09-20T15:50:11.136Z,22.12
2023-09-20T15:52:41.065Z,22.21
2023-09-20T15:55:10.861Z,22.01
2023-09-20T15:57:37.972Z,22.40
2023-09-20T16:00:13.836Z,21.74
2023-09-20T16:02:41.358Z,21.98
2023-09-20T16:05:10.478Z,21.61
2023-09-20T16:07:40.614Z,21.79
2023-09-20T16:10:14.037Z,21.79
2023-09-20T16:12:41.435Z,21.84
2023-09-20T16:15:10.895Z,21.62
2023-09-20T16:17:39.254Z,22.02
2023-09-20T16:20:08.526Z,21.79
2023-09-20T16:22:35.985Z,21.40
2023-09-20T16:25:04.304Z,21.26
2023-09-20T16:27:30.825Z,21.13
2023-09-20T16:29:57.427Z,21.04
2023-09-20T16:32:24.274Z,21.01
2023-09-20T16:34:51.240Z,20.82
2023-09-20T16:37:17.991Z,20.79
2023-09-20T16:39:44.858Z,20.72
2023-09-20T16:42:11.488Z,20.64
2023-09-20T16:44:39.396Z,20.53
2023-09-20T16:47:08.510Z,20.35
2023-09-20T16:49:35.004Z,20.34
2023-09-20T16:52:02.199Z,20.21
2023-09-20T16:54:29.112Z,20.38
2023-09-20T16:56:57.207Z,20.00
2023-09-20T16:59:23.777Z,19.98
2023-09-20T17:01:50.586Z,19.81
2023-09-20T17:04:17.195Z,19.70
2023-09-20T17:06:43.977Z,19.53
2023-09-20T17:09:12.752Z,19.49
2023-09-20T17:11:39.612Z,19.41
2023-09-20T17:14:07.289Z,19.38
2023-09-20T17:16:33.981Z,19.23
2023-09-20T17:19:00.952Z,19.37
2023-09-20T17:21:27.561Z,19.17
2023-09-20T17:23:55.222Z,19.04
2023-09-20T17:26:22.088Z,18.96
2023-09-20T17:28:48.671Z,19.02
2023-09-20T17:31:15.315Z,18.79
2023-09-20T17:33:41.980Z,18.81
2023-09-20T17:36:12.692Z,18.64
2023-09-20T17:38:43.981Z,18.61
2023-09-20T17:41:13.045Z,18.81
2023-09-20T17:43:39.548Z,18.43
2023-09-20T17:46:07.077Z,18.43
2023-09-20T17:48:34.594Z,18.42
2023-09-20T17:51:01.456Z,18.13
2023-09-20T17:53:29.431Z,18.11
2023-09-20T17:55:55.976Z,18.08
2023-09-20T17:58:22.600Z,18.13
2023-09-20T18:00:49.175Z,18.28
2023-09-20T18:03:15.852Z,17.99
2023-09-20T18:05:42.942Z,17.96
2023-09-20T18:08:09.582Z,18.09
2023-09-20T18:10:36.070Z,17.87
2023-09-20T18:13:04.277Z,17.82
2023-09-20T18:15:31.393Z,17.69
2023-09-20T18:17:58.141Z,17.70
2023-09-20T18:20:25.123Z,17.69
2023-09-20T18:22:52.657Z,17.65
2023-09-20T18:25:20.834Z,17.73
2023-09-20T18:27:51.851Z,17.57
2023-09-20T18:30:19.059Z,17.69
2023-09-20T18:32:46.073Z,17.49
2023-09-20T18:35:12.716Z,17.52
2023-09-20T18:37:39.450Z,17.50
2023-09-20T18:40:09.331Z,17.50
2023-09-20T18:42:35.882Z,17.28
2023-09-20T18:45:03.081Z,17.30
2023-09-20T18:47:42.999Z,17.10
2023-09-20T18:50:14.865Z,17.18
2023-09-20T18:52:42.085Z,17.22
2023-09-20T18:55:08.866Z,17.15
2023-09-20T18:57:35.360Z,17.04
2023-09-20T19:00:02.406Z,17.21
2023-09-20T19:02:29.232Z,17.17
2023-09-20T19:04:56.840Z,16.68
2023-09-20T19:07:24.503Z,16.84
2023-09-20T19:09:55.721Z,16.79
2023-09-20T19:12:23.781Z,16.53
2023-09-20T19:14:51.782Z,16.47
2023-09-20T19:17:19.120Z,16.64
2023-09-20T19:19:45.912Z,16.54
2023-09-20T19:22:14.811Z,16.29
2023-09-20T19:24:43.674Z,16.48
2023-09-20T19:27:11.380Z,16.35
2023-09-20T19:29:38.906Z,16.46
2023-09-20T19:32:05.459Z,16.29
2023-09-20T19:34:34.234Z,16.49
2023-09-20T19:37:01.798Z,16.33
2023-09-20T19:39:29.732Z,16.15
2023-09-20T19:41:57.902Z,15.79
2023-09-20T19:44:26.553Z,15.92
2023-09-20T19:46:53.075Z,15.64
2023-09-20T19:49:19.623Z,15.87
2023-09-20T19:51:47.975Z,15.64
2023-09-20T19:54:15.389Z,15.58
2023-09-20T19:56:43.579Z,15.63
2023-09-20T19:59:12.595Z,15.57
2023-09-20T20:01:40.454Z,15.59
2023-09-20T20:04:09.864Z,15.57
2023-09-20T20:06:37.279Z,15.31
2023-09-20T20:09:07.299Z,15.49
2023-09-20T20:11:34.210Z,15.36
2023-09-20T20:14:00.709Z,15.44
2023-09-20T20:16:28.262Z,15.24
2023-09-20T20:18:57.735Z,15.40
2023-09-20T20:21:25.970Z,15.27
2023-09-20T20:23:54.877Z,15.39
2023-09-20T20:26:22.733Z,15.31
2023-09-20T20:28:51.137Z,15.20
2023-09-20T20:31:21.061Z,15.00
2023-09-20T20:33:47.970Z,14.95
2023-09-20T20:36:15.307Z,14.73
2023-09-20T20:38:42.642Z,14.86
2023-09-20T20:41:10.424Z,15.02
2023-09-20T20:43:38.222Z,15.10
2023-09-20T20:46:15.876Z,14.99
2023-09-20T20:48:45.259Z,14.94
2023-09-20T20:51:16.174Z,15.00
2023-09-20T20:53:48.404Z,15.10
2023-09-20T20:56:17.269Z,15.03
2023-09-20T20:58:48.034Z,14.95
2023-09-20T21:01:15.719Z,14.85
2023-09-20T21:03:42.881Z,14.75
2023-09-20T21:06:10.866Z,14.68
2023-09-20T21:08:38.668Z,14.55
2023-09-20T21:11:08.812Z,14.47
2023-09-20T21:13:37.632Z,14.67
2023-09-20T21:16:05.680Z,14.53
2023-09-20T21:18:32.454Z,14.52
2023-09-20T21:21:06.718Z,14.30
2023-09-20T21:23:35.877Z,14.42
2023-09-20T21:26:04.589Z,14.12
2023-09-20T21:28:31.161Z,14.34
2023-09-20T21:30:57.792Z,14.40
2023-09-20T21:33:24.469Z,14.49
2023-09-20T21:35:51.930Z,14.58
2023-09-20T21:38:19.252Z,14.34
2023-09-20T21:40:46.093Z,14.38
2023-09-20T21:43:13.374Z,14.36
2023-09-20T21:45:39.989Z,14.09
2023-09-20T21:48:07.848Z,14.10
2023-09-20T21:50:35.968Z,13.87
2023-09-20T21:53:05.026Z,13.86
2023-09-20T21:55:32.101Z,13.85
2023-09-20T21:57:58.863Z,13.79
2023-09-20T22:00:27.417Z,13.61
2023-09-20T22:03:02.134Z,13.51
2023-09-20T22:05:29.632Z,13.71
2023-09-20T22:08:03.225Z,13.95
2023-09-20T22:10:38.933Z,13.58
2023-09-20T22:13:08.150Z,13.56
2023-09-20T22:15:37.356Z,13.85
2023-09-20T22:18:12.778Z,13.80
2023-09-20T22:20:39.586Z,14.06
2023-09-20T22:23:08.986Z,13.93
2023-09-20T22:25:35.588Z,13.81
2023-09-20T22:28:02.404Z,13.73
2023-09-20T22:30:28.908Z,13.69
2023-09-20T22:32:55.475Z,13.71
2023-09-20T22:35:22.531Z,13.67
2023-09-20T22:37:53.722Z,13.55
2023-09-20T22:40:23.064Z,13.82
2023-09-20T22:42:52.679Z,13.74
2023-09-20T22:45:27.341Z,13.86
2023-09-20T22:48:00.053Z,13.74
2023-09-20T22:50:29.812Z,13.76
2023-09-20T22:53:07.251Z,13.83
2023-09-20T22:55:40.249Z,13.89
2023-09-20T22:58:15.454Z,13.82
2023-09-20T23:00:45.642Z,13.70
2023-09-20T23:03:15.311Z,13.46
2023-09-20T23:05:44.371Z,13.47
2023-09-20T23:08:12.856Z,13.18
2023-09-20T23:10:45.561Z,13.27
2023-09-20T23:13:20.052Z,13.46
2023-09-20T23:15:52.827Z,13.55
2023-09-20T23:18:23.513Z,13.41
2023-09-20T23:20:53.382Z,13.47
2023-09-20T23:23:20.610Z,13.57
2023-09-20T23:25:50.804Z,13.44
2023-09-20T23:28:18.046Z,13.47
2023-09-20T23:30:47.036Z,13.52
2023-09-20T23:33:17.894Z,13.30
2023-09-20T23:35:59.882Z,13.05
2023-09-20T23:38:29.759Z,12.92
2023-09-20T23:41:06.598Z,13.19
2023-09-20T23:43:35.155Z,12.96
2023-09-20T23:46:10.910Z,12.95
2023-09-20T23:48:42.423Z,13.22
2023-09-20T23:51:09.682Z,13.12
2023-09-20T23:53:40.477Z,12.96
2023-09-20T23:56:08.058Z,12.92
2023-09-20T23:58:35.802Z,12.99
